sensor_id;sensor_type;location;lat;lon;timestamp;temperature;humidity
45765;DHT22;31474;45.332;10.230;2022-09-23T00:00:32;15.40;95.70
45765;DHT22;31474;45.332;10.230;2022-09-23T00:02:58;15.30;95.50
45765;DHT22;31474;45.332;10.230;2022-09-23T00:05:27;15.40;95.60
45765;DHT22;31474;45.332;10.230;2022-09-23T00:07:54;15.50;95.30
45765;DHT22;31474;45.332;10.230;2022-09-23T00:10:21;15.60;95.40
45765;DHT22;31474;45.332;10.230;2022-09-23T00:12:46;15.50;95.50
45765;DHT22;31474;45.332;10.230;2022-09-23T00:15:12;15.60;95.40
45765;DHT22;31474;45.332;10.230;2022-09-23T00:17:37;15.60;95.00
45765;DHT22;31474;45.332;10.230;2022-09-23T00:20:06;15.70;95.00
45765;DHT22;31474;45.332;10.230;2022-09-23T00:22:34;15.60;95.00
45765;DHT22;31474;45.332;10.230;2022-09-23T00:25:04;15.60;95.00
45765;DHT22;31474;45.332;10.230;2022-09-23T00:27:30;15.60;94.90
45765;DHT22;31474;45.332;10.230;2022-09-23T00:29:58;15.60;95.00
45765;DHT22;31474;45.332;10.230;2022-09-23T00:32:24;15.60;95.00
45765;DHT22;31474;45.332;10.230;2022-09-23T00:34:50;15.60;95.00
45765;DHT22;31474;45.332;10.230;2022-09-23T00:37:17;15.60;94.90
45765;DHT22;31474;45.332;10.230;2022-09-23T00:39:43;15.60;95.00
45765;DHT22;31474;45.332;10.230;2022-09-23T00:42:18;15.60;95.00
45765;DHT22;31474;45.332;10.230;2022-09-23T00:44:50;15.60;95.30
45765;DHT22;31474;45.332;10.230;2022-09-23T00:52:54;15.40;95.60
45765;DHT22;31474;45.332;10.230;2022-09-23T00:55:27;15.40;95.40
45765;DHT22;31474;45.332;10.230;2022-09-23T00:57:56;15.30;95.60
45765;DHT22;31474;45.332;10.230;2022-09-23T01:00:23;15.30;95.50
45765;DHT22;31474;45.332;10.230;2022-09-23T01:02:49;15.30;95.90
45765;DHT22;31474;45.332;10.230;2022-09-23T01:05:16;15.20;95.70
45765;DHT22;31474;45.332;10.230;2022-09-23T01:07:43;15.20;95.80
45765;DHT22;31474;45.332;10.230;2022-09-23T01:10:09;15.10;95.80
45765;DHT22;31474;45.332;10.230;2022-09-23T01:15:57;15.20;96.30
45765;DHT22;31474;45.332;10.230;2022-09-23T01:18:57;15.10;96.00
45765;DHT22;31474;45.332;10.230;2022-09-23T01:24:25;15.30;96.30
45765;DHT22;31474;45.332;10.230;2022-09-23T01:35:15;15.20;96.40
45765;DHT22;31474;45.332;10.230;2022-09-23T01:40:46;15.20;95.80
45765;DHT22;31474;45.332;10.230;2022-09-23T01:43:09;15.20;96.10
45765;DHT22;31474;45.332;10.230;2022-09-23T01:45:47;15.30;95.60
45765;DHT22;31474;45.332;10.230;2022-09-23T01:48:31;15.30;95.80
45765;DHT22;31474;45.332;10.230;2022-09-23T01:53:38;15.30;95.60
45765;DHT22;31474;45.332;10.230;2022-09-23T01:58:58;15.30;95.70
45765;DHT22;31474;45.332;10.230;2022-09-23T02:04:29;15.30;95.80
45765;DHT22;31474;45.332;10.230;2022-09-23T02:07:07;15.20;95.80
45765;DHT22;31474;45.332;10.230;2022-09-23T02:09:40;15.20;95.80
45765;DHT22;31474;45.332;10.230;2022-09-23T02:12:14;15.20;95.70
45765;DHT22;31474;45.332;10.230;2022-09-23T02:14:57;15.20;95.80
45765;DHT22;31474;45.332;10.230;2022-09-23T02:17:36;15.20;96.30
45765;DHT22;31474;45.332;10.230;2022-09-23T02:20:06;15.20;95.90
45765;DHT22;31474;45.332;10.230;2022-09-23T02:22:50;15.20;95.70
45765;DHT22;31474;45.332;10.230;2022-09-23T02:25:16;15.20;95.90
45765;DHT22;31474;45.332;10.230;2022-09-23T02:27:46;15.10;95.70
45765;DHT22;31474;45.332;10.230;2022-09-23T02:30:24;15.10;95.90
45765;DHT22;31474;45.332;10.230;2022-09-23T02:35:26;15.10;96.60
45765;DHT22;31474;45.332;10.230;2022-09-23T02:43:29;15.10;96.20
45765;DHT22;31474;45.332;10.230;2022-09-23T02:45:58;15.00;96.30
45765;DHT22;31474;45.332;10.230;2022-09-23T02:48:49;15.00;96.00
45765;DHT22;31474;45.332;10.230;2022-09-23T02:51:15;15.00;96.60
45765;DHT22;31474;45.332;10.230;2022-09-23T02:53:41;15.00;96.20
45765;DHT22;31474;45.332;10.230;2022-09-23T02:56:33;15.00;96.20
45765;DHT22;31474;45.332;10.230;2022-09-23T02:58:59;14.90;96.80
45765;DHT22;31474;45.332;10.230;2022-09-23T03:04:09;14.90;96.50
45765;DHT22;31474;45.332;10.230;2022-09-23T03:09:09;14.80;96.40
45765;DHT22;31474;45.332;10.230;2022-09-23T03:11:39;14.70;96.60
45765;DHT22;31474;45.332;10.230;2022-09-23T03:14:18;14.70;96.70
45765;DHT22;31474;45.332;10.230;2022-09-23T03:17:00;14.70;97.00
45765;DHT22;31474;45.332;10.230;2022-09-23T03:19:35;14.70;96.70
45765;DHT22;31474;45.332;10.230;2022-09-23T03:22:24;14.70;96.70
45765;DHT22;31474;45.332;10.230;2022-09-23T03:24:52;14.70;97.00
45765;DHT22;31474;45.332;10.230;2022-09-23T03:27:23;14.80;96.70
45765;DHT22;31474;45.332;10.230;2022-09-23T03:29:52;14.70;96.70
45765;DHT22;31474;45.332;10.230;2022-09-23T03:32:22;14.70;96.60
45765;DHT22;31474;45.332;10.230;2022-09-23T03:34:50;14.70;96.80
45765;DHT22;31474;45.332;10.230;2022-09-23T03:37:36;14.70;96.80
45765;DHT22;31474;45.332;10.230;2022-09-23T03:42:43;14.70;97.00
45765;DHT22;31474;45.332;10.230;2022-09-23T03:45:16;14.70;96.90
45765;DHT22;31474;45.332;10.230;2022-09-23T03:47:43;14.70;96.90
45765;DHT22;31474;45.332;10.230;2022-09-23T03:50:09;14.70;97.00
45765;DHT22;31474;45.332;10.230;2022-09-23T03:52:37;14.60;96.90
45765;DHT22;31474;45.332;10.230;2022-09-23T03:55:05;14.60;97.00
45765;DHT22;31474;45.332;10.230;2022-09-23T03:57:30;14.60;97.00
45765;DHT22;31474;45.332;10.230;2022-09-23T03:59:56;14.50;97.00
45765;DHT22;31474;45.332;10.230;2022-09-23T04:02:22;14.50;97.00
45765;DHT22;31474;45.332;10.230;2022-09-23T04:04:47;14.40;97.10
45765;DHT22;31474;45.332;10.230;2022-09-23T04:07:13;14.40;97.20
45765;DHT22;31474;45.332;10.230;2022-09-23T04:09:39;14.40;97.30
45765;DHT22;31474;45.332;10.230;2022-09-23T04:12:05;14.30;97.40
45765;DHT22;31474;45.332;10.230;2022-09-23T04:14:31;14.30;97.50
45765;DHT22;31474;45.332;10.230;2022-09-23T04:16:57;14.20;97.60
45765;DHT22;31474;45.332;10.230;2022-09-23T04:19:22;14.30;97.70
45765;DHT22;31474;45.332;10.230;2022-09-23T04:21:48;14.20;97.70
45765;DHT22;31474;45.332;10.230;2022-09-23T04:24:15;14.20;97.80
45765;DHT22;31474;45.332;10.230;2022-09-23T04:26:41;14.20;97.90
45765;DHT22;31474;45.332;10.230;2022-09-23T04:29:07;14.20;97.90
45765;DHT22;31474;45.332;10.230;2022-09-23T04:31:33;14.20;97.80
45765;DHT22;31474;45.332;10.230;2022-09-23T04:33:59;14.10;97.90
45765;DHT22;31474;45.332;10.230;2022-09-23T04:36:25;14.10;97.90
45765;DHT22;31474;45.332;10.230;2022-09-23T04:38:51;14.10;98.00
45765;DHT22;31474;45.332;10.230;2022-09-23T04:41:18;14.10;98.00
45765;DHT22;31474;45.332;10.230;2022-09-23T04:43:44;14.10;98.00
45765;DHT22;31474;45.332;10.230;2022-09-23T04:46:12;14.00;98.00
45765;DHT22;31474;45.332;10.230;2022-09-23T04:48:39;14.00;98.10
45765;DHT22;31474;45.332;10.230;2022-09-23T04:51:16;13.90;98.10
45765;DHT22;31474;45.332;10.230;2022-09-23T04:53:44;13.90;98.30
45765;DHT22;31474;45.332;10.230;2022-09-23T04:56:15;13.90;98.20
45765;DHT22;31474;45.332;10.230;2022-09-23T04:58:42;13.90;98.30
45765;DHT22;31474;45.332;10.230;2022-09-23T05:03:41;14.00;98.60
45765;DHT22;31474;45.332;10.230;2022-09-23T05:06:08;14.00;98.40
45765;DHT22;31474;45.332;10.230;2022-09-23T05:08:34;14.00;98.40
45765;DHT22;31474;45.332;10.230;2022-09-23T05:11:02;14.00;98.40
45765;DHT22;31474;45.332;10.230;2022-09-23T05:13:31;14.00;98.50
45765;DHT22;31474;45.332;10.230;2022-09-23T05:15:59;13.90;98.40
45765;DHT22;31474;45.332;10.230;2022-09-23T05:18:26;13.90;98.50
45765;DHT22;31474;45.332;10.230;2022-09-23T05:20:53;13.80;98.40
45765;DHT22;31474;45.332;10.230;2022-09-23T05:23:20;13.80;98.60
45765;DHT22;31474;45.332;10.230;2022-09-23T05:25:46;13.80;98.70
45765;DHT22;31474;45.332;10.230;2022-09-23T05:28:13;13.80;98.70
45765;DHT22;31474;45.332;10.230;2022-09-23T05:30:42;13.80;98.70
45765;DHT22;31474;45.332;10.230;2022-09-23T05:33:09;13.90;98.60
45765;DHT22;31474;45.332;10.230;2022-09-23T05:35:34;13.90;98.60
45765;DHT22;31474;45.332;10.230;2022-09-23T05:38:00;13.90;98.60
45765;DHT22;31474;45.332;10.230;2022-09-23T05:40:25;13.90;98.80
45765;DHT22;31474;45.332;10.230;2022-09-23T05:42:51;14.00;98.80
45765;DHT22;31474;45.332;10.230;2022-09-23T05:45:17;13.90;98.80
45765;DHT22;31474;45.332;10.230;2022-09-23T05:47:42;13.90;98.90
45765;DHT22;31474;45.332;10.230;2022-09-23T05:50:08;14.00;98.80
45765;DHT22;31474;45.332;10.230;2022-09-23T05:52:34;14.00;98.80
45765;DHT22;31474;45.332;10.230;2022-09-23T05:55:00;14.10;98.70
45765;DHT22;31474;45.332;10.230;2022-09-23T05:57:27;14.20;98.70
45765;DHT22;31474;45.332;10.230;2022-09-23T05:59:52;14.20;98.70
45765;DHT22;31474;45.332;10.230;2022-09-23T06:02:18;14.30;98.80
45765;DHT22;31474;45.332;10.230;2022-09-23T06:04:43;14.30;98.80
45765;DHT22;31474;45.332;10.230;2022-09-23T06:07:10;14.40;98.70
45765;DHT22;31474;45.332;10.230;2022-09-23T06:09:36;14.50;98.60
45765;DHT22;31474;45.332;10.230;2022-09-23T06:12:01;14.70;98.50
45765;DHT22;31474;45.332;10.230;2022-09-23T06:14:27;14.70;98.50
45765;DHT22;31474;45.332;10.230;2022-09-23T06:16:53;14.90;98.50
45765;DHT22;31474;45.332;10.230;2022-09-23T06:19:19;15.00;98.20
45765;DHT22;31474;45.332;10.230;2022-09-23T06:21:44;15.20;97.90
45765;DHT22;31474;45.332;10.230;2022-09-23T06:24:10;15.30;97.50
45765;DHT22;31474;45.332;10.230;2022-09-23T06:26:36;15.40;97.50
45765;DHT22;31474;45.332;10.230;2022-09-23T06:29:07;15.50;97.60
45765;DHT22;31474;45.332;10.230;2022-09-23T06:31:33;15.60;97.50
45765;DHT22;31474;45.332;10.230;2022-09-23T06:33:59;15.70;97.20
45765;DHT22;31474;45.332;10.230;2022-09-23T06:36:25;15.90;97.00
45765;DHT22;31474;45.332;10.230;2022-09-23T06:38:51;16.00;96.70
45765;DHT22;31474;45.332;10.230;2022-09-23T06:41:16;16.00;96.70
45765;DHT22;31474;45.332;10.230;2022-09-23T06:43:42;16.10;97.10
45765;DHT22;31474;45.332;10.230;2022-09-23T06:46:12;16.30;97.10
45765;DHT22;31474;45.332;10.230;2022-09-23T06:48:37;16.40;97.10
45765;DHT22;31474;45.332;10.230;2022-09-23T06:51:05;16.50;96.80
45765;DHT22;31474;45.332;10.230;2022-09-23T06:53:32;16.60;96.70
45765;DHT22;31474;45.332;10.230;2022-09-23T06:56:08;16.70;96.80
45765;DHT22;31474;45.332;10.230;2022-09-23T06:58:36;16.80;96.70
45765;DHT22;31474;45.332;10.230;2022-09-23T07:01:12;17.00;96.40
45765;DHT22;31474;45.332;10.230;2022-09-23T07:03:40;17.10;95.90
45765;DHT22;31474;45.332;10.230;2022-09-23T07:06:06;17.30;96.00
45765;DHT22;31474;45.332;10.230;2022-09-23T07:08:32;17.50;95.90
45765;DHT22;31474;45.332;10.230;2022-09-23T07:11:00;17.70;95.30
45765;DHT22;31474;45.332;10.230;2022-09-23T07:13:27;17.80;95.30
45765;DHT22;31474;45.332;10.230;2022-09-23T07:15:55;17.80;94.70
45765;DHT22;31474;45.332;10.230;2022-09-23T07:18:23;18.00;94.70
45765;DHT22;31474;45.332;10.230;2022-09-23T07:20:50;18.20;94.50
45765;DHT22;31474;45.332;10.230;2022-09-23T07:23:16;18.40;94.40
45765;DHT22;31474;45.332;10.230;2022-09-23T07:25:43;18.50;94.00
45765;DHT22;31474;45.332;10.230;2022-09-23T07:28:09;18.50;93.90
45765;DHT22;31474;45.332;10.230;2022-09-23T07:30:36;18.60;94.20
45765;DHT22;31474;45.332;10.230;2022-09-23T07:33:02;18.70;93.70
45765;DHT22;31474;45.332;10.230;2022-09-23T07:35:28;19.00;93.80
45765;DHT22;31474;45.332;10.230;2022-09-23T07:37:54;19.20;93.50
45765;DHT22;31474;45.332;10.230;2022-09-23T07:40:20;19.10;93.00
45765;DHT22;31474;45.332;10.230;2022-09-23T07:42:45;19.20;93.60
45765;DHT22;31474;45.332;10.230;2022-09-23T07:45:12;19.40;93.30
45765;DHT22;31474;45.332;10.230;2022-09-23T07:47:37;19.40;93.30
45765;DHT22;31474;45.332;10.230;2022-09-23T07:50:08;19.50;92.90
45765;DHT22;31474;45.332;10.230;2022-09-23T07:52:37;19.60;92.10
45765;DHT22;31474;45.332;10.230;2022-09-23T07:55:04;19.60;92.30
45765;DHT22;31474;45.332;10.230;2022-09-23T07:57:30;19.70;92.50
45765;DHT22;31474;45.332;10.230;2022-09-23T07:59:55;19.80;92.20
45765;DHT22;31474;45.332;10.230;2022-09-23T08:02:21;19.90;92.50
45765;DHT22;31474;45.332;10.230;2022-09-23T08:04:47;20.00;92.60
45765;DHT22;31474;45.332;10.230;2022-09-23T08:07:14;20.00;92.40
45765;DHT22;31474;45.332;10.230;2022-09-23T08:09:41;20.00;92.10
45765;DHT22;31474;45.332;10.230;2022-09-23T08:12:14;20.10;92.10
45765;DHT22;31474;45.332;10.230;2022-09-23T08:14:41;20.20;92.00
45765;DHT22;31474;45.332;10.230;2022-09-23T08:17:07;20.30;92.20
45765;DHT22;31474;45.332;10.230;2022-09-23T08:19:33;20.40;91.70
45765;DHT22;31474;45.332;10.230;2022-09-23T08:21:59;20.60;92.30
45765;DHT22;31474;45.332;10.230;2022-09-23T08:24:25;20.70;92.10
45765;DHT22;31474;45.332;10.230;2022-09-23T08:26:51;20.70;92.00
45765;DHT22;31474;45.332;10.230;2022-09-23T08:29:21;20.80;92.00
45765;DHT22;31474;45.332;10.230;2022-09-23T08:31:47;20.90;92.00
45765;DHT22;31474;45.332;10.230;2022-09-23T08:34:18;20.90;91.80
45765;DHT22;31474;45.332;10.230;2022-09-23T08:36:44;21.10;91.70
45765;DHT22;31474;45.332;10.230;2022-09-23T08:39:15;21.30;91.80
45765;DHT22;31474;45.332;10.230;2022-09-23T08:41:47;21.40;91.40
45765;DHT22;31474;45.332;10.230;2022-09-23T08:44:44;21.50;91.50
45765;DHT22;31474;45.332;10.230;2022-09-23T08:50:02;21.60;91.10
45765;DHT22;31474;45.332;10.230;2022-09-23T08:55:45;21.60;90.30
45765;DHT22;31474;45.332;10.230;2022-09-23T09:03:44;22.00;90.20
45765;DHT22;31474;45.332;10.230;2022-09-23T09:06:19;22.10;90.60
45765;DHT22;31474;45.332;10.230;2022-09-23T09:08:55;22.10;89.00
45765;DHT22;31474;45.332;10.230;2022-09-23T09:11:31;22.20;90.20
45765;DHT22;31474;45.332;10.230;2022-09-23T09:17:04;22.10;84.90
45765;DHT22;31474;45.332;10.230;2022-09-23T09:19:55;21.90;85.90
45765;DHT22;31474;45.332;10.230;2022-09-23T09:22:32;22.10;87.40
45765;DHT22;31474;45.332;10.230;2022-09-23T09:25:17;21.90;84.70
45765;DHT22;31474;45.332;10.230;2022-09-23T09:27:44;21.70;84.60
45765;DHT22;31474;45.332;10.230;2022-09-23T09:30:11;21.80;87.70
45765;DHT22;31474;45.332;10.230;2022-09-23T09:32:42;22.00;88.70
45765;DHT22;31474;45.332;10.230;2022-09-23T09:35:28;22.30;87.60
45765;DHT22;31474;45.332;10.230;2022-09-23T09:37:59;22.30;83.80
45765;DHT22;31474;45.332;10.230;2022-09-23T09:40:26;22.20;85.30
45765;DHT22;31474;45.332;10.230;2022-09-23T09:42:51;22.10;86.10
45765;DHT22;31474;45.332;10.230;2022-09-23T09:56:03;22.50;82.20
45765;DHT22;31474;45.332;10.230;2022-09-23T10:03:50;22.60;84.40
45765;DHT22;31474;45.332;10.230;2022-09-23T10:06:21;22.70;86.10
45765;DHT22;31474;45.332;10.230;2022-09-23T10:11:27;22.70;79.80
45765;DHT22;31474;45.332;10.230;2022-09-23T10:16:25;22.70;80.40
45765;DHT22;31474;45.332;10.230;2022-09-23T10:18:52;22.50;80.60
45765;DHT22;31474;45.332;10.230;2022-09-23T10:21:22;22.60;82.50
45765;DHT22;31474;45.332;10.230;2022-09-23T10:23:53;22.50;82.40
45765;DHT22;31474;45.332;10.230;2022-09-23T10:26:36;22.50;80.10
45765;DHT22;31474;45.332;10.230;2022-09-23T10:34:46;22.30;78.00
45765;DHT22;31474;45.332;10.230;2022-09-23T10:37:22;22.40;81.90
45765;DHT22;31474;45.332;10.230;2022-09-23T10:39:49;22.40;80.50
45765;DHT22;31474;45.332;10.230;2022-09-23T10:45:48;22.70;77.70
45765;DHT22;31474;45.332;10.230;2022-09-23T10:56:55;23.00;79.40
45765;DHT22;31474;45.332;10.230;2022-09-23T10:59:47;22.80;76.60
45765;DHT22;31474;45.332;10.230;2022-09-23T11:08:01;22.80;78.10
45765;DHT22;31474;45.332;10.230;2022-09-23T11:16:08;23.00;76.00
45765;DHT22;31474;45.332;10.230;2022-09-23T11:18:43;22.90;77.70
45765;DHT22;31474;45.332;10.230;2022-09-23T11:24:26;23.00;75.50
45765;DHT22;31474;45.332;10.230;2022-09-23T11:27:10;23.00;77.30
45765;DHT22;31474;45.332;10.230;2022-09-23T11:37:19;23.00;80.40
45765;DHT22;31474;45.332;10.230;2022-09-23T11:42:25;22.90;76.70
45765;DHT22;31474;45.332;10.230;2022-09-23T11:45:07;23.00;78.90
45765;DHT22;31474;45.332;10.230;2022-09-23T11:47:43;23.00;75.80
45765;DHT22;31474;45.332;10.230;2022-09-23T11:50:39;22.80;76.00
45765;DHT22;31474;45.332;10.230;2022-09-23T11:53:14;22.80;76.60
45765;DHT22;31474;45.332;10.230;2022-09-23T11:55:51;22.90;78.40
45765;DHT22;31474;45.332;10.230;2022-09-23T11:58:25;23.00;78.10
45765;DHT22;31474;45.332;10.230;2022-09-23T12:01:08;23.20;78.90
45765;DHT22;31474;45.332;10.230;2022-09-23T12:06:06;23.30;79.40
45765;DHT22;31474;45.332;10.230;2022-09-23T12:08:38;23.40;79.60
45765;DHT22;31474;45.332;10.230;2022-09-23T12:24:58;23.40;74.40
45765;DHT22;31474;45.332;10.230;2022-09-23T12:27:46;23.30;77.30
45765;DHT22;31474;45.332;10.230;2022-09-23T12:30:14;23.10;75.40
45765;DHT22;31474;45.332;10.230;2022-09-23T12:32:41;23.10;78.90
45765;DHT22;31474;45.332;10.230;2022-09-23T12:35:24;23.30;79.20
45765;DHT22;31474;45.332;10.230;2022-09-23T12:37:52;23.30;76.10
45765;DHT22;31474;45.332;10.230;2022-09-23T12:42:52;23.40;77.60
45765;DHT22;31474;45.332;10.230;2022-09-23T12:45:38;23.50;76.60
45765;DHT22;31474;45.332;10.230;2022-09-23T12:50:51;23.50;75.70
45765;DHT22;31474;45.332;10.230;2022-09-23T12:56:18;23.40;76.60
45765;DHT22;31474;45.332;10.230;2022-09-23T13:03:54;23.00;78.10
45765;DHT22;31474;45.332;10.230;2022-09-23T13:07:12;23.00;77.40
45765;DHT22;31474;45.332;10.230;2022-09-23T13:09:41;23.10;75.50
45765;DHT22;31474;45.332;10.230;2022-09-23T13:12:18;22.90;76.40
45765;DHT22;31474;45.332;10.230;2022-09-23T13:14:48;22.90;77.00
45765;DHT22;31474;45.332;10.230;2022-09-23T13:17:31;23.00;77.10
45765;DHT22;31474;45.332;10.230;2022-09-23T13:25:21;22.90;76.20
45765;DHT22;31474;45.332;10.230;2022-09-23T13:27:52;22.90;77.10
45765;DHT22;31474;45.332;10.230;2022-09-23T13:30:23;22.90;78.00
45765;DHT22;31474;45.332;10.230;2022-09-23T13:34:03;22.90;77.00
45765;DHT22;31474;45.332;10.230;2022-09-23T13:36:00;22.90;76.20
45765;DHT22;31474;45.332;10.230;2022-09-23T13:38:31;23.00;78.30
45765;DHT22;31474;45.332;10.230;2022-09-23T13:41:06;23.00;78.10
45765;DHT22;31474;45.332;10.230;2022-09-23T13:43:35;23.00;76.00
45765;DHT22;31474;45.332;10.230;2022-09-23T13:46:08;23.00;78.10
45765;DHT22;31474;45.332;10.230;2022-09-23T13:48:34;23.00;77.60
45765;DHT22;31474;45.332;10.230;2022-09-23T13:51:07;23.00;78.30
45765;DHT22;31474;45.332;10.230;2022-09-23T13:53:34;22.90;76.50
45765;DHT22;31474;45.332;10.230;2022-09-23T13:56:14;23.00;78.00
45765;DHT22;31474;45.332;10.230;2022-09-23T13:58:40;23.10;77.10
45765;DHT22;31474;45.332;10.230;2022-09-23T14:01:43;23.20;78.60
45765;DHT22;31474;45.332;10.230;2022-09-23T14:04:22;23.20;78.50
45765;DHT22;31474;45.332;10.230;2022-09-23T14:06:49;23.20;76.70
45765;DHT22;31474;45.332;10.230;2022-09-23T14:09:14;23.10;77.60
45765;DHT22;31474;45.332;10.230;2022-09-23T14:11:40;23.10;77.70
45765;DHT22;31474;45.332;10.230;2022-09-23T14:14:06;23.10;78.60
45765;DHT22;31474;45.332;10.230;2022-09-23T14:16:38;23.20;78.40
45765;DHT22;31474;45.332;10.230;2022-09-23T14:19:04;23.20;78.40
45765;DHT22;31474;45.332;10.230;2022-09-23T14:24:13;23.20;77.70
45765;DHT22;31474;45.332;10.230;2022-09-23T14:26:41;23.20;78.20
45765;DHT22;31474;45.332;10.230;2022-09-23T14:29:19;23.20;79.40
45765;DHT22;31474;45.332;10.230;2022-09-23T14:31:56;23.20;77.80
45765;DHT22;31474;45.332;10.230;2022-09-23T14:40:18;23.10;77.10
45765;DHT22;31474;45.332;10.230;2022-09-23T14:42:50;23.00;76.10
45765;DHT22;31474;45.332;10.230;2022-09-23T14:45:22;23.00;77.50
45765;DHT22;31474;45.332;10.230;2022-09-23T14:47:57;23.00;77.40
45765;DHT22;31474;45.332;10.230;2022-09-23T14:50:26;23.00;77.20
45765;DHT22;31474;45.332;10.230;2022-09-23T14:58:52;22.80;77.20
45765;DHT22;31474;45.332;10.230;2022-09-23T15:01:35;22.70;76.30
45765;DHT22;31474;45.332;10.230;2022-09-23T15:06:45;22.70;76.30
45765;DHT22;31474;45.332;10.230;2022-09-23T15:09:38;22.70;76.80
45765;DHT22;31474;45.332;10.230;2022-09-23T15:12:15;22.60;75.60
45765;DHT22;31474;45.332;10.230;2022-09-23T15:14:47;22.60;78.00
45765;DHT22;31474;45.332;10.230;2022-09-23T15:20:34;22.40;76.70
45765;DHT22;31474;45.332;10.230;2022-09-23T15:22:45;22.40;76.70
45765;DHT22;31474;45.332;10.230;2022-09-23T15:27:40;22.30;77.90
45765;DHT22;31474;45.332;10.230;2022-09-23T15:30:17;22.30;77.60
45765;DHT22;31474;45.332;10.230;2022-09-23T15:32:44;22.20;76.40
45765;DHT22;31474;45.332;10.230;2022-09-23T15:35:22;22.20;77.80
45765;DHT22;31474;45.332;10.230;2022-09-23T15:37:50;22.20;76.50
45765;DHT22;31474;45.332;10.230;2022-09-23T15:40:25;22.20;78.40
45765;DHT22;31474;45.332;10.230;2022-09-23T15:42:56;22.20;78.20
45765;DHT22;31474;45.332;10.230;2022-09-23T15:45:43;22.20;77.50
45765;DHT22;31474;45.332;10.230;2022-09-23T15:48:12;22.20;77.30
45765;DHT22;31474;45.332;10.230;2022-09-23T15:50:38;22.20;77.40
45765;DHT22;31474;45.332;10.230;2022-09-23T15:53:11;22.10;77.30
45765;DHT22;31474;45.332;10.230;2022-09-23T15:55:38;22.00;77.40
45765;DHT22;31474;45.332;10.230;2022-09-23T15:58:03;22.00;78.30
45765;DHT22;31474;45.332;10.230;2022-09-23T16:00:29;22.00;78.30
45765;DHT22;31474;45.332;10.230;2022-09-23T16:02:54;22.00;78.60
45765;DHT22;31474;45.332;10.230;2022-09-23T16:05:28;22.00;79.10
45765;DHT22;31474;45.332;10.230;2022-09-23T16:08:01;22.00;77.80
45765;DHT22;31474;45.332;10.230;2022-09-23T16:10:27;22.00;79.10
45765;DHT22;31474;45.332;10.230;2022-09-23T16:12:55;21.90;79.40
45765;DHT22;31474;45.332;10.230;2022-09-23T16:15:23;21.90;79.30
45765;DHT22;31474;45.332;10.230;2022-09-23T16:17:49;21.90;79.50
45765;DHT22;31474;45.332;10.230;2022-09-23T16:20:15;21.90;79.20
45765;DHT22;31474;45.332;10.230;2022-09-23T16:23:03;21.80;79.70
45765;DHT22;31474;45.332;10.230;2022-09-23T16:25:32;21.80;78.60
45765;DHT22;31474;45.332;10.230;2022-09-23T16:28:01;21.80;79.50
45765;DHT22;31474;45.332;10.230;2022-09-23T16:30:28;21.70;79.40
45765;DHT22;31474;45.332;10.230;2022-09-23T16:32:54;21.70;79.80
45765;DHT22;31474;45.332;10.230;2022-09-23T16:35:22;21.70;80.30
45765;DHT22;31474;45.332;10.230;2022-09-23T16:37:49;21.70;80.10
45765;DHT22;31474;45.332;10.230;2022-09-23T16:40:17;21.60;80.40
45765;DHT22;31474;45.332;10.230;2022-09-23T16:42:47;21.60;81.00
45765;DHT22;31474;45.332;10.230;2022-09-23T16:45:15;21.60;81.20
45765;DHT22;31474;45.332;10.230;2022-09-23T16:47:43;21.50;81.50
45765;DHT22;31474;45.332;10.230;2022-09-23T16:50:11;21.50;81.80
45765;DHT22;31474;45.332;10.230;2022-09-23T16:52:36;21.40;82.20
45765;DHT22;31474;45.332;10.230;2022-09-23T16:55:03;21.40;82.60
45765;DHT22;31474;45.332;10.230;2022-09-23T16:57:28;21.30;83.00
45765;DHT22;31474;45.332;10.230;2022-09-23T16:59:54;21.30;83.30
45765;DHT22;31474;45.332;10.230;2022-09-23T17:02:38;21.20;84.00
45765;DHT22;31474;45.332;10.230;2022-09-23T17:05:22;21.10;84.10
45765;DHT22;31474;45.332;10.230;2022-09-23T17:07:48;21.00;84.50
45765;DHT22;31474;45.332;10.230;2022-09-23T17:10:14;21.00;84.80
45765;DHT22;31474;45.332;10.230;2022-09-23T17:12:42;20.90;85.00
45765;DHT22;31474;45.332;10.230;2022-09-23T17:15:09;20.80;84.90
45765;DHT22;31474;45.332;10.230;2022-09-23T17:17:35;20.70;85.20
45765;DHT22;31474;45.332;10.230;2022-09-23T17:20:05;20.70;85.90
45765;DHT22;31474;45.332;10.230;2022-09-23T17:25:20;20.60;85.50
45765;DHT22;31474;45.332;10.230;2022-09-23T17:27:52;20.50;85.40
45765;DHT22;31474;45.332;10.230;2022-09-23T17:30:18;20.50;85.50
45765;DHT22;31474;45.332;10.230;2022-09-23T17:32:43;20.50;85.60
45765;DHT22;31474;45.332;10.230;2022-09-23T17:35:12;20.40;85.90
45765;DHT22;31474;45.332;10.230;2022-09-23T17:37:38;20.30;86.20
45765;DHT22;31474;45.332;10.230;2022-09-23T17:40:04;20.30;86.50
45765;DHT22;31474;45.332;10.230;2022-09-23T17:42:30;20.20;87.40
45765;DHT22;31474;45.332;10.230;2022-09-23T17:44:55;20.20;87.00
45765;DHT22;31474;45.332;10.230;2022-09-23T17:47:22;20.10;87.20
45765;DHT22;31474;45.332;10.230;2022-09-23T17:53:09;20.00;89.10
45765;DHT22;31474;45.332;10.230;2022-09-23T17:55:35;19.90;87.80
45765;DHT22;31474;45.332;10.230;2022-09-23T17:58:01;19.80;87.80
45765;DHT22;31474;45.332;10.230;2022-09-23T18:00:26;19.80;87.70
45765;DHT22;31474;45.332;10.230;2022-09-23T18:02:52;19.70;88.20
45765;DHT22;31474;45.332;10.230;2022-09-23T18:05:18;19.70;87.70
45765;DHT22;31474;45.332;10.230;2022-09-23T18:07:43;19.60;88.10
45765;DHT22;31474;45.332;10.230;2022-09-23T18:10:09;19.60;88.10
45765;DHT22;31474;45.332;10.230;2022-09-23T18:12:35;19.60;87.90
45765;DHT22;31474;45.332;10.230;2022-09-23T18:15:01;19.60;87.90
45765;DHT22;31474;45.332;10.230;2022-09-23T18:17:27;19.60;87.90
45765;DHT22;31474;45.332;10.230;2022-09-23T18:19:52;19.60;88.30
45765;DHT22;31474;45.332;10.230;2022-09-23T18:22:18;19.60;88.00
45765;DHT22;31474;45.332;10.230;2022-09-23T18:24:44;19.50;88.10
45765;DHT22;31474;45.332;10.230;2022-09-23T18:27:09;19.50;88.20
45765;DHT22;31474;45.332;10.230;2022-09-23T18:29:35;19.50;88.90
45765;DHT22;31474;45.332;10.230;2022-09-23T18:32:02;19.50;89.10
45765;DHT22;31474;45.332;10.230;2022-09-23T18:34:28;19.40;88.90
45765;DHT22;31474;45.332;10.230;2022-09-23T18:36:54;19.40;88.70
45765;DHT22;31474;45.332;10.230;2022-09-23T18:39:20;19.30;89.10
45765;DHT22;31474;45.332;10.230;2022-09-23T18:41:47;19.20;89.40
45765;DHT22;31474;45.332;10.230;2022-09-23T18:44:15;19.20;89.20